Decoded Metar for LFMV (AVIGNON in FRANCE) (IATA:AVN) | Meteo·Mobile Aviation Weather
aviador You're here:

LFMV Decoded Metar

AVIGNON in FRANCE
Report Time2019-09-21 08:30:00
UTC Time2019-09-21 08:48:39
Flight Rules vfr VFR
Wind120° at 11 kt
W.Decomp.*RWY 17: 6.9 kt HW 8.5 kt LCW
Visibility9999 m
Phenomena:Rain
Clouds:Scattered 020 Hf
Few CB 030 Hf
Expected CloudBase > 4,800 ft AGL from Temp-Dew spread
Ceiling4,000 ft
Temp23°C (ISA +8)
Dew Point11°C (47% RH)
AAT19.4°C
QNH1018 hPa
Density Alt1,093 ft
Elevation125 ft
Report Wrong Elevation
Raw Report
LFMV 210830Z AUTO 12011KT 090V150 CAVOK 23/11 Q1018 BECMG RA
SCT020 FEW030CB OVC040=

Extra information for LFMV:More info

Metar Taf Metar & Taf Last 4 Metars F.Rules Stats Wind Profile Meteogram Temp Stats Airport Information Weather charts Add Link Nearby VenuesMetar ALERT Operation Metar Decoded Social comments